Detall de PIREP

Printer-friendly versionPDF version

[2014/10/01 08:02:00]
Flight IATA:CT3211
Pilot Number:042
Company ICAO:CAT
Aircraft Type:B463/A
PAX:25
Aircraft Registration:PAX
Departing Airport: LROP
Destination Airport: LEPA
Alternate Airport:LEBL
Online: VATSIM
Route:POLUN UY88 VAL UZ924 BATRU UY88 VEBAR UZ924 KEB UY88 GILUK UZ924 RIPAL UM603 MORSS
Flight Level:F340
No Slew and time accel
No pause
Crash detect
Detect pilot in Cockpit between each 30 and 45 minutes
08:02 Zero fuel Weight: 80446 Lbs, Fuel Weight: 22751 Lbs
08:02 VATSIM:LROP 010630Z 35003KT 320V020 CAVOK 16/10 Q1024 NOSIG
08:02 VATSIM:LEPA 010630Z 05008KT 9999 FEW020 20/18 Q1024 NOSIG
08:23 Parking Brakes off
08:29 Take-off
08:29 Take off Weight: 102301 Lbs
08:29 Wind: 095º @ 005 Knots Heading: 083º
08:29 POS N44º 34´ 42´´ E026º 06´ 29´´
08:29 Flaps:2 at 158 Knots
08:29 Gear Up: 157 Knots
08:30 Flaps:1 at 151 Knots
08:31 Flaps:0 at 205 Knots
08:44 Wind:311º@036 Knots Heading: 274º Ground Speed: 338 Knots Altitude 28031 ft
08:50 TOC
08:50 Fuel Weight: 18748 Lb
08:59 Wind:308º@038 Knots Heading: 275º Ground Speed: 375 Knots Altitude 34327 ft
09:14 Wind:288º@031 Knots Heading: 271º Ground Speed: 376 Knots Altitude 34353 ft
09:29 Wind:266º@031 Knots Heading: 250º Ground Speed: 376 Knots Altitude 34370 ft
09:44 Wind:270º@024 Knots Heading: 242º Ground Speed: 385 Knots Altitude 34399 ft
09:59 Wind:254º@027 Knots Heading: 241º Ground Speed: 380 Knots Altitude 34317 ft
10:14 Wind:244º@024 Knots Heading: 238º Ground Speed: 377 Knots Altitude 34340 ft
10:29 Wind:247º@027 Knots Heading: 249º Ground Speed: 379 Knots Altitude 34320 ft
10:44 Wind:251º@031 Knots Heading: 251º Ground Speed: 375 Knots Altitude 34288 ft
10:59 Wind:268º@044 Knots Heading: 261º Ground Speed: 362 Knots Altitude 34291 ft
11:13 TOD
11:13 Fuel Weight: 9711 Lb
11:14 Wind:263º@050 Knots Heading: 259º Ground Speed: 340 Knots Altitude 33061 ft
11:29 Wind:249º@023 Knots Heading: 241º Ground Speed: 254 Knots Altitude 15685 ft
11:43 Flaps:1 at 197 Knots
11:44 Wind:055º@009 Knots Heading: 268º Ground Speed: 214 Knots Altitude 4110 ft
11:48 Flaps:2 at 177 Knots
11:48 Gear Down: 171 Knots
11:48 Flaps:3 at 171 Knots
11:51 TouchDown:Rate -190 ft/min Speed: 136 Knots
11:52 VATSIM:LEPA 011030Z 05016KT 9999 FEW020 25/19 Q1025 NOSIG
11:52 Land
11:52 Wind:049º@016 Knots
11:52 Heading: 046º
11:52 Flight Duration: 03:23
11:52 Landing Weight: 88807 Lbs
11:52 POS N39º 33´ 27´´ E002º 43´ 59´´
11:55 Parking brakes on
11:55 Block to Block Duration: 03:32
11:55 Final Fuel: 8057 Lbls
11:55 Spent Fuel: 14693 Lbls
11:55 Flight Length: 1158 NM
11:55 TOD Land Length: 156 NM

Exportar CSV

Powered by Drupal - Modified by Danger4k